Aérodrome :
LOGIN :

S'inscrire | Disclaimer

   EN    FR    IT 

 










Légende :    VFR   VFR Marginal   IFR   IFR Intensif   IFR Très Intensif
Visi : 
Plafond : 
>= 8 km
>= 3000ft
5 à 8 km
1000 à 3000 ft
1500m à 5 km
500 à 1000 ft
800 à 1500m
200 à 500 ft
< 800m
< 200 ft
Symboles :   Orages  Brouillard  Fortes neiges  Fortes précipitations  Vent > 20 kt
SIGMETs :   Divers  Orages  Givrage  Turbulence  Onde Orograph.  Cendres Volcan.






- Altitude de l'aérodrome : 102 ft
- Code IATA : CNG


LFBG - Cognac

DERNIER METAR :
  • 201700Z AUTO 14011KT 9999 -RA NSC 16/15 Q1004 BECMG 16017G27KT

METARs EXPIRÉS :
  • 201630Z AUTO 14009KT 9999 -RA NSC 16/15 Q1004 BECMG 16017G27KT
  • 201600Z AUTO 15013KT 9999 -RA FEW048/// SCT060/// BKN088/// ///TCU 17/15 Q1005 BECMG 16017G27KT NSC
  • 201530Z AUTO 15016KT 9999 -RA ///TCU 17/14 Q1006 BECMG 16017G27KT NSC
  • 201500Z AUTO 15017KT 9999 -RA NSC 18/14 Q1006 BECMG 16017G27KT
  • 201430Z AUTO 15017KT CAVOK 18/14 Q1006 BECMG 16017G27KT

TAF TAF LFBG
Valide du 20 à 15h jusqu'au 21 à 15h UTC


201400Z 2015/2115 16017G27KT CAVOK
TEMPO 2015/2020 -RA
BECMG 2022/2024 15025G40KT
TEMPO 2113/2115 4000 -SHRA BKN040TCU



MET'MAP, la Météo Aéronautique d'un coup d'oeil ! - Copyright ORBIFLY Décembre 2007 - Disclaimer

ORBIFLY MET'MAP TEAM :

Programmation & Développement : Alexandra Zaïnal
Sur une idée originale de : Baudouin d'Aumeries
Assistance à la programmation : Marc-Olivier Méhu
Soutien technique & logistique : Manuel Goepfert

Contact : metmap@orbifly.com




SOURCES & CREDITS :

   NOAA